sensor_id;sensor_type;location;lat;lon;timestamp;pressure;altitude;pressure_sealevel;temperature;humidity
46722;BME280;32455;43.430;23.136;2023-05-20T00:01:27;98512.50;;;12.66;100.00
46722;BME280;32455;43.430;23.136;2023-05-20T00:04:13;98502.53;;;12.37;100.00
46722;BME280;32455;43.430;23.136;2023-05-20T00:06:58;98491.81;;;12.12;100.00
46722;BME280;32455;43.430;23.136;2023-05-20T00:09:44;98482.09;;;12.11;100.00
46722;BME280;32455;43.430;23.136;2023-05-20T00:12:29;98473.41;;;12.27;100.00
46722;BME280;32455;43.430;23.136;2023-05-20T00:15:14;98465.84;;;12.36;100.00
46722;BME280;32455;43.430;23.136;2023-05-20T00:18:00;98476.00;;;12.52;100.00
46722;BME280;32455;43.430;23.136;2023-05-20T00:20:45;98480.91;;;12.43;100.00
46722;BME280;32455;43.430;23.136;2023-05-20T00:23:30;98487.69;;;12.46;100.00
46722;BME280;32455;43.430;23.136;2023-05-20T00:26:16;98494.25;;;12.50;100.00
46722;BME280;32455;43.430;23.136;2023-05-20T00:29:02;98487.50;;;12.77;100.00
46722;BME280;32455;43.430;23.136;2023-05-20T00:31:47;98478.78;;;12.45;100.00
46722;BME280;32455;43.430;23.136;2023-05-20T00:34:33;98487.03;;;12.32;100.00
46722;BME280;32455;43.430;23.136;2023-05-20T00:37:18;98490.84;;;12.43;100.00
46722;BME280;32455;43.430;23.136;2023-05-20T00:40:04;98495.75;;;12.64;100.00
46722;BME280;32455;43.430;23.136;2023-05-20T00:42:50;98499.66;;;12.68;100.00
46722;BME280;32455;43.430;23.136;2023-05-20T00:45:36;98509.78;;;12.85;100.00
46722;BME280;32455;43.430;23.136;2023-05-20T00:48:22;98513.03;;;12.75;100.00
46722;BME280;32455;43.430;23.136;2023-05-20T00:51:10;98514.41;;;12.66;100.00
46722;BME280;32455;43.430;23.136;2023-05-20T00:53:56;98511.53;;;12.12;100.00
46722;BME280;32455;43.430;23.136;2023-05-20T00:56:42;98500.13;;;11.92;100.00
46722;BME280;32455;43.430;23.136;2023-05-20T00:59:27;98515.78;;;11.76;100.00
46722;BME280;32455;43.430;23.136;2023-05-20T01:02:13;98514.41;;;11.67;100.00
46722;BME280;32455;43.430;23.136;2023-05-20T01:04:58;98519.41;;;11.64;100.00
46722;BME280;32455;43.430;23.136;2023-05-20T01:07:44;98515.78;;;11.76;100.00
46722;BME280;32455;43.430;23.136;2023-05-20T01:10:29;98521.31;;;11.82;100.00
46722;BME280;32455;43.430;23.136;2023-05-20T01:13:19;98521.03;;;11.46;100.00
46722;BME280;32455;43.430;23.136;2023-05-20T01:16:06;98517.38;;;11.34;100.00
46722;BME280;32455;43.430;23.136;2023-05-20T01:18:54;98527.59;;;11.25;100.00
46722;BME280;32455;43.430;23.136;2023-05-20T01:21:42;98514.25;;;11.37;100.00
46722;BME280;32455;43.430;23.136;2023-05-20T01:24:29;98515.47;;;11.41;100.00
46722;BME280;32455;43.430;23.136;2023-05-20T01:27:14;98515.97;;;11.32;100.00
46722;BME280;32455;43.430;23.136;2023-05-20T01:29:59;98513.00;;;11.15;100.00
46722;BME280;32455;43.430;23.136;2023-05-20T01:32:53;98512.22;;;11.08;100.00
46722;BME280;32455;43.430;23.136;2023-05-20T01:35:41;98503.00;;;11.22;100.00
46722;BME280;32455;43.430;23.136;2023-05-20T01:38:28;98519.31;;;11.27;100.00
46722;BME280;32455;43.430;23.136;2023-05-20T01:41:14;98511.72;;;11.17;100.00
46722;BME280;32455;43.430;23.136;2023-05-20T01:43:59;98520.63;;;10.86;100.00
46722;BME280;32455;43.430;23.136;2023-05-20T01:46:48;98513.06;;;10.70;100.00
46722;BME280;32455;43.430;23.136;2023-05-20T01:49:34;98497.41;;;10.60;100.00
46722;BME280;32455;43.430;23.136;2023-05-20T01:52:21;98496.97;;;10.63;100.00
46722;BME280;32455;43.430;23.136;2023-05-20T01:55:07;98490.13;;;10.67;100.00
46722;BME280;32455;43.430;23.136;2023-05-20T01:57:52;98485.97;;;10.71;100.00
46722;BME280;32455;43.430;23.136;2023-05-20T02:00:38;98488.59;;;10.78;100.00
46722;BME280;32455;43.430;23.136;2023-05-20T02:03:23;98492.81;;;10.67;100.00
46722;BME280;32455;43.430;23.136;2023-05-20T02:06:09;98493.66;;;10.61;100.00
46722;BME280;32455;43.430;23.136;2023-05-20T02:08:54;98489.97;;;10.62;100.00
46722;BME280;32455;43.430;23.136;2023-05-20T02:11:40;98484.00;;;10.53;100.00
46722;BME280;32455;43.430;23.136;2023-05-20T02:14:25;98495.34;;;10.62;100.00
46722;BME280;32455;43.430;23.136;2023-05-20T02:17:10;98501.28;;;10.71;100.00
46722;BME280;32455;43.430;23.136;2023-05-20T02:19:55;98487.88;;;10.64;100.00
46722;BME280;32455;43.430;23.136;2023-05-20T02:22:41;98498.03;;;10.62;100.00
46722;BME280;32455;43.430;23.136;2023-05-20T02:25:26;98490.63;;;10.51;100.00
46722;BME280;32455;43.430;23.136;2023-05-20T02:28:11;98491.38;;;10.65;100.00
46722;BME280;32455;43.430;23.136;2023-05-20T02:30:57;98490.16;;;10.61;100.00
46722;BME280;32455;43.430;23.136;2023-05-20T02:33:42;98487.53;;;10.54;100.00
46722;BME280;32455;43.430;23.136;2023-05-20T02:36:28;98492.97;;;10.41;100.00
46722;BME280;32455;43.430;23.136;2023-05-20T02:39:15;98503.44;;;10.49;100.00
46722;BME280;32455;43.430;23.136;2023-05-20T02:42:01;98498.91;;;10.49;100.00
46722;BME280;32455;43.430;23.136;2023-05-20T02:44:46;98510.31;;;10.45;100.00
46722;BME280;32455;43.430;23.136;2023-05-20T02:47:31;98511.19;;;10.32;100.00
46722;BME280;32455;43.430;23.136;2023-05-20T02:50:17;98499.41;;;10.26;100.00
46722;BME280;32455;43.430;23.136;2023-05-20T02:53:02;98507.28;;;10.28;100.00
46722;BME280;32455;43.430;23.136;2023-05-20T02:55:47;98503.53;;;10.22;100.00
46722;BME280;32455;43.430;23.136;2023-05-20T02:58:34;98505.63;;;10.14;100.00
46722;BME280;32455;43.430;23.136;2023-05-20T03:01:19;98500.47;;;10.06;100.00
46722;BME280;32455;43.430;23.136;2023-05-20T03:04:05;98490.81;;;9.98;100.00
46722;BME280;32455;43.430;23.136;2023-05-20T03:06:51;98515.31;;;10.21;100.00
46722;BME280;32455;43.430;23.136;2023-05-20T03:09:37;98519.03;;;10.20;100.00
46722;BME280;32455;43.430;23.136;2023-05-20T03:12:22;98514.06;;;10.24;100.00
46722;BME280;32455;43.430;23.136;2023-05-20T03:15:09;98510.75;;;10.22;100.00
46722;BME280;32455;43.430;23.136;2023-05-20T03:17:55;98525.38;;;10.39;100.00
46722;BME280;32455;43.430;23.136;2023-05-20T03:20:40;98520.19;;;10.51;100.00
46722;BME280;32455;43.430;23.136;2023-05-20T03:23:26;98521.06;;;10.38;100.00
46722;BME280;32455;43.430;23.136;2023-05-20T03:26:11;98523.75;;;10.32;100.00
46722;BME280;32455;43.430;23.136;2023-05-20T03:28:56;98530.94;;;10.44;100.00
46722;BME280;32455;43.430;23.136;2023-05-20T03:31:42;98538.16;;;10.50;100.00
46722;BME280;32455;43.430;23.136;2023-05-20T03:34:27;98529.47;;;10.48;100.00
46722;BME280;32455;43.430;23.136;2023-05-20T03:37:14;98522.88;;;10.51;100.00
46722;BME280;32455;43.430;23.136;2023-05-20T03:40:00;98530.03;;;10.64;100.00
46722;BME280;32455;43.430;23.136;2023-05-20T03:42:45;98539.34;;;10.68;100.00
46722;BME280;32455;43.430;23.136;2023-05-20T03:45:30;98534.13;;;10.73;100.00
46722;BME280;32455;43.430;23.136;2023-05-20T03:48:17;98528.53;;;10.74;100.00
46722;BME280;32455;43.430;23.136;2023-05-20T03:51:03;98520.03;;;10.77;100.00
46722;BME280;32455;43.430;23.136;2023-05-20T03:53:49;98523.88;;;10.95;100.00
46722;BME280;32455;43.430;23.136;2023-05-20T03:56:34;98520.63;;;11.18;100.00
46722;BME280;32455;43.430;23.136;2023-05-20T03:59:19;98524.09;;;11.25;100.00
46722;BME280;32455;43.430;23.136;2023-05-20T04:02:05;98526.63;;;11.45;100.00
46722;BME280;32455;43.430;23.136;2023-05-20T04:04:50;98521.41;;;11.50;100.00
46722;BME280;32455;43.430;23.136;2023-05-20T04:07:37;98526.00;;;11.68;100.00
46722;BME280;32455;43.430;23.136;2023-05-20T04:10:22;98534.69;;;11.70;100.00
46722;BME280;32455;43.430;23.136;2023-05-20T04:13:08;98531.50;;;11.79;100.00
46722;BME280;32455;43.430;23.136;2023-05-20T04:15:54;98524.22;;;11.87;100.00
46722;BME280;32455;43.430;23.136;2023-05-20T04:18:39;98519.72;;;11.99;100.00
46722;BME280;32455;43.430;23.136;2023-05-20T04:21:25;98510.91;;;12.10;100.00
46722;BME280;32455;43.430;23.136;2023-05-20T04:24:10;98516.09;;;12.30;100.00
46722;BME280;32455;43.430;23.136;2023-05-20T04:26:55;98504.91;;;12.45;100.00
46722;BME280;32455;43.430;23.136;2023-05-20T04:29:41;98516.34;;;12.59;100.00
46722;BME280;32455;43.430;23.136;2023-05-20T04:32:30;98513.63;;;12.77;100.00
46722;BME280;32455;43.430;23.136;2023-05-20T04:35:15;98535.78;;;13.09;100.00
46722;BME280;32455;43.430;23.136;2023-05-20T04:38:00;98542.97;;;13.15;100.00
46722;BME280;32455;43.430;23.136;2023-05-20T04:40:46;98531.56;;;13.13;100.00
46722;BME280;32455;43.430;23.136;2023-05-20T04:43:31;98541.16;;;13.27;100.00
46722;BME280;32455;43.430;23.136;2023-05-20T04:46:17;98541.78;;;13.41;100.00
46722;BME280;32455;43.430;23.136;2023-05-20T04:49:02;98536.75;;;13.45;100.00
46722;BME280;32455;43.430;23.136;2023-05-20T04:51:48;98544.16;;;13.49;100.00
46722;BME280;32455;43.430;23.136;2023-05-20T04:54:34;98539.69;;;13.78;100.00
46722;BME280;32455;43.430;23.136;2023-05-20T04:57:19;98539.34;;;13.87;100.00
46722;BME280;32455;43.430;23.136;2023-05-20T05:00:05;98527.72;;;13.98;100.00
46722;BME280;32455;43.430;23.136;2023-05-20T05:02:52;98528.53;;;14.10;100.00
46722;BME280;32455;43.430;23.136;2023-05-20T05:05:38;98535.56;;;14.23;100.00
46722;BME280;32455;43.430;23.136;2023-05-20T05:08:24;98517.94;;;14.32;100.00
46722;BME280;32455;43.430;23.136;2023-05-20T05:11:10;98515.31;;;14.37;100.00
46722;BME280;32455;43.430;23.136;2023-05-20T05:13:55;98508.03;;;14.49;100.00
46722;BME280;32455;43.430;23.136;2023-05-20T05:16:41;98517.16;;;14.60;100.00
46722;BME280;32455;43.430;23.136;2023-05-20T05:19:26;98520.28;;;14.52;100.00
46722;BME280;32455;43.430;23.136;2023-05-20T05:22:11;98528.09;;;14.65;100.00
46722;BME280;32455;43.430;23.136;2023-05-20T05:24:57;98529.38;;;14.74;100.00
46722;BME280;32455;43.430;23.136;2023-05-20T05:27:43;98519.81;;;14.84;100.00
46722;BME280;32455;43.430;23.136;2023-05-20T05:30:28;98525.41;;;14.94;100.00
46722;BME280;32455;43.430;23.136;2023-05-20T05:33:14;98528.34;;;14.92;100.00
46722;BME280;32455;43.430;23.136;2023-05-20T05:35:59;98521.31;;;14.91;100.00
46722;BME280;32455;43.430;23.136;2023-05-20T05:38:46;98526.00;;;14.96;100.00
46722;BME280;32455;43.430;23.136;2023-05-20T05:41:30;98526.50;;;15.10;100.00
46722;BME280;32455;43.430;23.136;2023-05-20T05:44:15;98514.31;;;15.24;100.00
46722;BME280;32455;43.430;23.136;2023-05-20T05:47:01;98532.03;;;15.32;100.00
46722;BME280;32455;43.430;23.136;2023-05-20T05:49:46;98531.06;;;15.38;100.00
46722;BME280;32455;43.430;23.136;2023-05-20T05:52:32;98533.28;;;15.58;100.00
46722;BME280;32455;43.430;23.136;2023-05-20T05:55:17;98520.75;;;15.51;100.00
46722;BME280;32455;43.430;23.136;2023-05-20T05:58:03;98522.03;;;15.49;100.00
46722;BME280;32455;43.430;23.136;2023-05-20T06:00:51;98526.66;;;15.65;100.00
46722;BME280;32455;43.430;23.136;2023-05-20T06:03:36;98518.38;;;15.89;100.00
46722;BME280;32455;43.430;23.136;2023-05-20T06:06:22;98523.53;;;15.90;100.00
46722;BME280;32455;43.430;23.136;2023-05-20T06:09:07;98525.56;;;16.00;100.00
46722;BME280;32455;43.430;23.136;2023-05-20T06:11:54;98507.56;;;16.11;100.00
46722;BME280;32455;43.430;23.136;2023-05-20T06:14:39;98528.75;;;16.36;100.00
46722;BME280;32455;43.430;23.136;2023-05-20T06:17:24;98532.56;;;16.35;100.00
46722;BME280;32455;43.430;23.136;2023-05-20T06:20:09;98541.88;;;16.44;100.00
46722;BME280;32455;43.430;23.136;2023-05-20T06:22:55;98533.00;;;16.48;100.00
46722;BME280;32455;43.430;23.136;2023-05-20T06:25:40;98521.69;;;16.57;100.00
46722;BME280;32455;43.430;23.136;2023-05-20T06:28:26;98537.31;;;16.66;100.00
46722;BME280;32455;43.430;23.136;2023-05-20T06:31:11;98543.13;;;16.75;100.00
46722;BME280;32455;43.430;23.136;2023-05-20T06:33:57;98542.69;;;16.83;100.00
46722;BME280;32455;43.430;23.136;2023-05-20T06:36:42;98541.84;;;17.05;100.00
46722;BME280;32455;43.430;23.136;2023-05-20T06:39:27;98543.22;;;17.07;100.00
46722;BME280;32455;43.430;23.136;2023-05-20T06:42:12;98538.88;;;17.06;100.00
46722;BME280;32455;43.430;23.136;2023-05-20T06:44:58;98543.41;;;17.27;100.00
46722;BME280;32455;43.430;23.136;2023-05-20T06:47:43;98540.38;;;17.51;100.00
46722;BME280;32455;43.430;23.136;2023-05-20T06:50:28;98544.31;;;17.65;100.00
46722;BME280;32455;43.430;23.136;2023-05-20T06:53:13;98532.75;;;17.80;100.00
46722;BME280;32455;43.430;23.136;2023-05-20T06:55:59;98537.44;;;17.90;100.00
46722;BME280;32455;43.430;23.136;2023-05-20T06:58:44;98551.13;;;18.00;100.00
46722;BME280;32455;43.430;23.136;2023-05-20T07:01:29;98550.38;;;18.15;100.00
46722;BME280;32455;43.430;23.136;2023-05-20T07:04:14;98538.94;;;18.08;100.00
46722;BME280;32455;43.430;23.136;2023-05-20T07:07:00;98546.88;;;18.19;100.00
46722;BME280;32455;43.430;23.136;2023-05-20T07:09:45;98540.88;;;18.12;100.00
46722;BME280;32455;43.430;23.136;2023-05-20T07:12:34;98540.41;;;18.25;100.00
46722;BME280;32455;43.430;23.136;2023-05-20T07:15:19;98533.09;;;18.36;100.00
46722;BME280;32455;43.430;23.136;2023-05-20T07:18:04;98525.50;;;18.33;100.00
46722;BME280;32455;43.430;23.136;2023-05-20T07:20:50;98539.16;;;18.53;100.00
46722;BME280;32455;43.430;23.136;2023-05-20T07:23:35;98533.72;;;18.53;100.00
46722;BME280;32455;43.430;23.136;2023-05-20T07:26:20;98540.84;;;18.60;100.00
46722;BME280;32455;43.430;23.136;2023-05-20T07:29:06;98528.34;;;18.69;100.00
46722;BME280;32455;43.430;23.136;2023-05-20T07:31:54;98535.78;;;18.84;100.00
46722;BME280;32455;43.430;23.136;2023-05-20T07:34:39;98538.03;;;19.12;100.00
46722;BME280;32455;43.430;23.136;2023-05-20T07:37:25;98530.97;;;19.11;100.00
46722;BME280;32455;43.430;23.136;2023-05-20T07:40:10;98535.09;;;19.34;100.00
46722;BME280;32455;43.430;23.136;2023-05-20T07:42:56;98533.72;;;19.47;100.00
46722;BME280;32455;43.430;23.136;2023-05-20T07:45:41;98517.91;;;19.44;95.53
46722;BME280;32455;43.430;23.136;2023-05-20T07:48:26;98529.97;;;19.63;92.05
46722;BME280;32455;43.430;23.136;2023-05-20T07:51:12;98525.31;;;19.74;97.30
46722;BME280;32455;43.430;23.136;2023-05-20T07:53:57;98534.56;;;19.93;98.76
46722;BME280;32455;43.430;23.136;2023-05-20T07:56:42;98538.09;;;19.99;90.97
46722;BME280;32455;43.430;23.136;2023-05-20T07:59:28;98532.13;;;19.97;91.44
46722;BME280;32455;43.430;23.136;2023-05-20T08:02:13;98521.47;;;20.06;93.66
46722;BME280;32455;43.430;23.136;2023-05-20T08:05:00;98523.91;;;20.12;91.08
46722;BME280;32455;43.430;23.136;2023-05-20T08:07:45;98530.19;;;20.18;90.41
46722;BME280;32455;43.430;23.136;2023-05-20T08:10:30;98531.53;;;20.20;89.86
46722;BME280;32455;43.430;23.136;2023-05-20T08:13:15;98536.69;;;20.32;89.65
46722;BME280;32455;43.430;23.136;2023-05-20T08:16:01;98531.72;;;20.44;86.17
46722;BME280;32455;43.430;23.136;2023-05-20T08:18:48;98538.56;;;20.57;89.07
46722;BME280;32455;43.430;23.136;2023-05-20T08:21:33;98536.34;;;20.59;74.55
46722;BME280;32455;43.430;23.136;2023-05-20T08:24:19;98537.50;;;20.48;76.77
46722;BME280;32455;43.430;23.136;2023-05-20T08:27:04;98530.06;;;20.59;76.39
46722;BME280;32455;43.430;23.136;2023-05-20T08:29:50;98527.03;;;20.70;79.83
46722;BME280;32455;43.430;23.136;2023-05-20T08:32:36;98531.06;;;20.83;76.96
46722;BME280;32455;43.430;23.136;2023-05-20T08:35:22;98534.28;;;20.95;74.34
46722;BME280;32455;43.430;23.136;2023-05-20T08:38:08;98531.81;;;20.99;74.78
46722;BME280;32455;43.430;23.136;2023-05-20T08:40:56;98538.34;;;20.98;74.41
46722;BME280;32455;43.430;23.136;2023-05-20T08:43:41;98535.38;;;20.94;72.62
46722;BME280;32455;43.430;23.136;2023-05-20T08:46:28;98533.72;;;20.98;74.72
46722;BME280;32455;43.430;23.136;2023-05-20T08:49:14;98529.06;;;20.94;77.01
46722;BME280;32455;43.430;23.136;2023-05-20T08:52:00;98529.78;;;21.15;78.65
46722;BME280;32455;43.430;23.136;2023-05-20T08:54:47;98526.19;;;21.24;81.09
46722;BME280;32455;43.430;23.136;2023-05-20T08:57:34;98516.59;;;21.32;76.08
46722;BME280;32455;43.430;23.136;2023-05-20T09:00:22;98533.69;;;21.48;71.94
46722;BME280;32455;43.430;23.136;2023-05-20T09:03:10;98514.00;;;21.51;72.67
46722;BME280;32455;43.430;23.136;2023-05-20T09:06:08;98532.06;;;21.47;69.22
46722;BME280;32455;43.430;23.136;2023-05-20T09:08:52;98527.78;;;21.31;67.26
46722;BME280;32455;43.430;23.136;2023-05-20T09:11:41;98531.47;;;21.55;69.22
46722;BME280;32455;43.430;23.136;2023-05-20T09:14:26;98512.28;;;21.60;70.73
46722;BME280;32455;43.430;23.136;2023-05-20T09:17:12;98515.31;;;21.59;66.77
46722;BME280;32455;43.430;23.136;2023-05-20T09:19:57;98509.38;;;21.81;70.62
46722;BME280;32455;43.430;23.136;2023-05-20T09:22:43;98500.06;;;21.82;70.93
46722;BME280;32455;43.430;23.136;2023-05-20T09:25:28;98497.94;;;21.73;67.29
46722;BME280;32455;43.430;23.136;2023-05-20T09:28:14;98494.44;;;21.68;70.59
46722;BME280;32455;43.430;23.136;2023-05-20T09:30:59;98492.16;;;22.04;72.79
46722;BME280;32455;43.430;23.136;2023-05-20T09:33:48;98493.47;;;22.12;69.16
46722;BME280;32455;43.430;23.136;2023-05-20T09:36:34;98504.31;;;22.22;65.95
46722;BME280;32455;43.430;23.136;2023-05-20T09:39:24;98500.38;;;22.33;65.57
46722;BME280;32455;43.430;23.136;2023-05-20T09:42:21;98501.81;;;22.49;66.64
46722;BME280;32455;43.430;23.136;2023-05-20T09:45:07;98482.50;;;22.41;64.69
46722;BME280;32455;43.430;23.136;2023-05-20T09:47:56;98497.84;;;22.13;64.76
46722;BME280;32455;43.430;23.136;2023-05-20T09:50:42;98477.38;;;22.05;65.03
46722;BME280;32455;43.430;23.136;2023-05-20T09:53:29;98473.75;;;22.39;65.30
46722;BME280;32455;43.430;23.136;2023-05-20T09:56:16;98461.09;;;22.43;65.24
46722;BME280;32455;43.430;23.136;2023-05-20T09:59:04;98478.00;;;22.50;62.15
46722;BME280;32455;43.430;23.136;2023-05-20T10:01:49;98475.50;;;22.30;59.66
46722;BME280;32455;43.430;23.136;2023-05-20T10:04:37;98467.50;;;22.33;67.47
46722;BME280;32455;43.430;23.136;2023-05-20T10:10:43;98468.91;;;22.31;64.99
46722;BME280;32455;43.430;23.136;2023-05-20T10:16:55;98464.00;;;22.52;60.96
46722;BME280;32455;43.430;23.136;2023-05-20T10:19:43;98466.25;;;22.68;58.69
46722;BME280;32455;43.430;23.136;2023-05-20T10:22:29;98467.34;;;22.86;59.04
46722;BME280;32455;43.430;23.136;2023-05-20T10:25:25;98476.19;;;22.83;57.03
46722;BME280;32455;43.430;23.136;2023-05-20T10:28:10;98469.78;;;22.50;60.38
46722;BME280;32455;43.430;23.136;2023-05-20T10:30:56;98458.75;;;22.55;61.64
46722;BME280;32455;43.430;23.136;2023-05-20T10:33:43;98459.94;;;22.68;59.56
46722;BME280;32455;43.430;23.136;2023-05-20T10:36:29;98453.78;;;23.00;59.36
46722;BME280;32455;43.430;23.136;2023-05-20T10:39:16;98450.59;;;22.93;62.95
46722;BME280;32455;43.430;23.136;2023-05-20T10:42:27;98449.47;;;22.94;60.29
46722;BME280;32455;43.430;23.136;2023-05-20T10:45:25;98453.44;;;23.20;59.83
46722;BME280;32455;43.430;23.136;2023-05-20T10:48:28;98443.50;;;23.24;59.84
46722;BME280;32455;43.430;23.136;2023-05-20T10:51:14;98448.66;;;23.45;62.74
46722;BME280;32455;43.430;23.136;2023-05-20T10:54:01;98444.63;;;23.23;60.36
46722;BME280;32455;43.430;23.136;2023-05-20T10:56:53;98446.47;;;23.28;60.86
46722;BME280;32455;43.430;23.136;2023-05-20T10:59:39;98437.44;;;23.28;59.55
46722;BME280;32455;43.430;23.136;2023-05-20T11:02:24;98443.50;;;23.43;60.50
46722;BME280;32455;43.430;23.136;2023-05-20T11:05:12;98434.78;;;23.04;64.29
46722;BME280;32455;43.430;23.136;2023-05-20T11:08:01;98429.63;;;22.83;64.81
46722;BME280;32455;43.430;23.136;2023-05-20T11:10:46;98425.94;;;22.93;62.06
46722;BME280;32455;43.430;23.136;2023-05-20T11:13:31;98423.59;;;23.19;63.86
46722;BME280;32455;43.430;23.136;2023-05-20T11:16:19;98431.03;;;23.18;63.09
46722;BME280;32455;43.430;23.136;2023-05-20T11:19:24;98424.31;;;23.43;59.08
46722;BME280;32455;43.430;23.136;2023-05-20T11:22:10;98419.50;;;23.35;61.77
46722;BME280;32455;43.430;23.136;2023-05-20T11:24:55;98430.72;;;23.20;62.06
46722;BME280;32455;43.430;23.136;2023-05-20T11:27:42;98419.88;;;23.29;59.87
46722;BME280;32455;43.430;23.136;2023-05-20T11:30:27;98417.34;;;23.32;61.17
46722;BME280;32455;43.430;23.136;2023-05-20T11:33:15;98421.16;;;23.50;60.16
46722;BME280;32455;43.430;23.136;2023-05-20T11:36:01;98410.66;;;23.71;64.68
46722;BME280;32455;43.430;23.136;2023-05-20T11:38:47;98414.75;;;23.73;59.17
46722;BME280;32455;43.430;23.136;2023-05-20T11:41:33;98412.75;;;23.28;60.30
46722;BME280;32455;43.430;23.136;2023-05-20T11:44:19;98396.44;;;23.36;59.58
46722;BME280;32455;43.430;23.136;2023-05-20T11:47:05;98405.03;;;23.30;62.29
46722;BME280;32455;43.430;23.136;2023-05-20T11:49:51;98392.56;;;23.37;62.93
46722;BME280;32455;43.430;23.136;2023-05-20T11:52:36;98388.97;;;23.56;62.06
46722;BME280;32455;43.430;23.136;2023-05-20T11:55:21;98400.94;;;23.46;58.57
46722;BME280;32455;43.430;23.136;2023-05-20T11:58:06;98396.78;;;23.48;60.17
46722;BME280;32455;43.430;23.136;2023-05-20T12:00:51;98393.75;;;23.64;58.62
46722;BME280;32455;43.430;23.136;2023-05-20T12:03:37;98376.13;;;23.70;60.89
46722;BME280;32455;43.430;23.136;2023-05-20T12:06:22;98376.56;;;23.58;57.67
46722;BME280;32455;43.430;23.136;2023-05-20T12:09:08;98363.97;;;23.57;58.13
46722;BME280;32455;43.430;23.136;2023-05-20T12:11:54;98356.38;;;23.68;58.35
46722;BME280;32455;43.430;23.136;2023-05-20T12:14:40;98337.81;;;23.65;60.80
46722;BME280;32455;43.430;23.136;2023-05-20T12:17:25;98343.63;;;23.77;59.28
46722;BME280;32455;43.430;23.136;2023-05-20T12:20:12;98343.41;;;23.73;61.15
46722;BME280;32455;43.430;23.136;2023-05-20T12:22:59;98346.94;;;23.88;59.85
46722;BME280;32455;43.430;23.136;2023-05-20T12:25:44;98336.78;;;23.74;61.22
46722;BME280;32455;43.430;23.136;2023-05-20T12:28:31;98349.00;;;23.68;56.64
46722;BME280;32455;43.430;23.136;2023-05-20T12:31:17;98357.22;;;23.22;57.11
46722;BME280;32455;43.430;23.136;2023-05-20T12:34:03;98342.09;;;22.92;57.18
46722;BME280;32455;43.430;23.136;2023-05-20T12:36:48;98330.25;;;22.59;58.66
46722;BME280;32455;43.430;23.136;2023-05-20T12:39:34;98328.78;;;22.66;57.12
46722;BME280;32455;43.430;23.136;2023-05-20T12:42:20;98326.69;;;22.58;58.98
46722;BME280;32455;43.430;23.136;2023-05-20T12:45:07;98323.50;;;22.51;61.23
46722;BME280;32455;43.430;23.136;2023-05-20T12:47:56;98324.78;;;22.59;59.70
46722;BME280;32455;43.430;23.136;2023-05-20T12:50:42;98313.44;;;22.65;62.19
46722;BME280;32455;43.430;23.136;2023-05-20T12:53:27;98313.41;;;22.84;59.42
46722;BME280;32455;43.430;23.136;2023-05-20T12:56:13;98312.38;;;22.80;59.33
46722;BME280;32455;43.430;23.136;2023-05-20T12:58:58;98304.81;;;22.91;57.08
46722;BME280;32455;43.430;23.136;2023-05-20T13:01:43;98300.94;;;22.59;55.89
46722;BME280;32455;43.430;23.136;2023-05-20T13:04:29;98302.06;;;22.58;56.87
46722;BME280;32455;43.430;23.136;2023-05-20T13:07:14;98309.97;;;22.79;57.61
46722;BME280;32455;43.430;23.136;2023-05-20T13:09:59;98301.72;;;22.97;57.68
46722;BME280;32455;43.430;23.136;2023-05-20T13:12:45;98290.88;;;23.06;59.46
46722;BME280;32455;43.430;23.136;2023-05-20T13:15:30;98299.66;;;23.49;50.26
46722;BME280;32455;43.430;23.136;2023-05-20T13:18:18;98294.06;;;23.55;48.28
46722;BME280;32455;43.430;23.136;2023-05-20T13:21:04;98291.91;;;23.38;49.64
46722;BME280;32455;43.430;23.136;2023-05-20T13:23:49;98258.72;;;22.60;50.30
46722;BME280;32455;43.430;23.136;2023-05-20T13:26:35;98272.59;;;23.02;52.01
46722;BME280;32455;43.430;23.136;2023-05-20T13:29:20;98268.44;;;23.04;51.40
46722;BME280;32455;43.430;23.136;2023-05-20T13:32:06;98278.00;;;22.88;47.81
46722;BME280;32455;43.430;23.136;2023-05-20T13:34:51;98282.06;;;22.39;50.41
46722;BME280;32455;43.430;23.136;2023-05-20T13:37:37;98268.91;;;22.41;54.35
46722;BME280;32455;43.430;23.136;2023-05-20T13:40:22;98254.31;;;22.78;49.99
46722;BME280;32455;43.430;23.136;2023-05-20T13:43:07;98258.09;;;22.82;52.39
46722;BME280;32455;43.430;23.136;2023-05-20T13:45:53;98261.34;;;23.17;50.40
46722;BME280;32455;43.430;23.136;2023-05-20T13:48:38;98256.28;;;23.38;51.43
46722;BME280;32455;43.430;23.136;2023-05-20T13:51:24;98247.44;;;23.41;52.62
46722;BME280;32455;43.430;23.136;2023-05-20T13:54:09;98247.06;;;23.47;48.66
46722;BME280;32455;43.430;23.136;2023-05-20T13:56:54;98248.03;;;23.38;48.03
46722;BME280;32455;43.430;23.136;2023-05-20T13:59:40;98242.03;;;23.63;48.04
46722;BME280;32455;43.430;23.136;2023-05-20T14:02:25;98248.28;;;23.69;46.48
46722;BME280;32455;43.430;23.136;2023-05-20T14:05:12;98248.34;;;23.50;46.90
46722;BME280;32455;43.430;23.136;2023-05-20T14:08:00;98240.94;;;23.64;47.58
46722;BME280;32455;43.430;23.136;2023-05-20T14:10:47;98251.09;;;23.64;47.21
46722;BME280;32455;43.430;23.136;2023-05-20T14:13:32;98230.69;;;23.70;48.34
46722;BME280;32455;43.430;23.136;2023-05-20T14:16:18;98232.63;;;23.56;47.12
46722;BME280;32455;43.430;23.136;2023-05-20T14:19:03;98227.94;;;23.42;48.35
46722;BME280;32455;43.430;23.136;2023-05-20T14:21:48;98240.44;;;23.62;45.00
46722;BME280;32455;43.430;23.136;2023-05-20T14:24:34;98228.75;;;23.57;45.32
46722;BME280;32455;43.430;23.136;2023-05-20T14:27:19;98234.06;;;23.67;45.64
46722;BME280;32455;43.430;23.136;2023-05-20T14:30:04;98222.75;;;23.55;47.28